Time;durP1;ratioP1;P1;durP2;ratioP2;P2;SDS_P1;SDS_P2;PMS_P1;PMS_P2;Temp;Humidity;BMP_temperature;BMP_pressure;BME280_temperature;BME280_humidity;BME280_pressure;Samples;Min_cycle;Max_cycle;Signal;HPM_P1;HPM_P2
2023/12/11 00:01:10;;;;;;;22.42;4.63;;;;;;;10.54;72.65;99948.38;5063280;28;20074;-67
2023/12/11 00:03:38;;;;;;;24.90;6.05;;;;;;;10.52;72.74;99945.13;5074496;28;20099;-67
2023/12/11 00:06:06;;;;;;;27.65;6.40;;;;;;;10.50;72.97;99950.75;5067996;28;20083;-65
2023/12/11 00:08:34;;;;;;;26.33;5.65;;;;;;;10.50;72.72;99953.44;5064090;28;20053;-64
2023/12/11 00:11:02;;;;;;;26.75;6.13;;;;;;;10.46;72.78;99944.22;5063214;28;20044;-64
2023/12/11 00:13:31;;;;;;;35.63;4.47;;;;;;;10.48;72.84;99949.38;5061668;28;20071;-64
2023/12/11 00:15:59;;;;;;;24.75;5.32;;;;;;;10.49;72.87;99940.25;5057062;28;20061;-65
2023/12/11 00:18:27;;;;;;;23.45;8.10;;;;;;;10.47;72.89;99951.22;5063754;28;20064;-65
2023/12/11 00:20:55;;;;;;;17.10;3.40;;;;;;;10.47;73.00;99953.91;5061305;28;20422;-65
2023/12/11 00:23:23;;;;;;;29.85;6.60;;;;;;;10.46;73.06;99952.28;5065890;28;20522;-65
2023/12/11 00:25:51;;;;;;;23.55;5.18;;;;;;;10.46;73.14;99943.41;5062583;28;20520;-65
2023/12/11 00:28:19;;;;;;;23.98;4.88;;;;;;;10.47;72.96;99948.53;5064865;28;20417;-65
2023/12/11 00:30:48;;;;;;;27.98;5.70;;;;;;;10.46;72.88;99954.97;5060477;28;20045;-65
2023/12/11 00:33:18;;;;;;;23.25;7.20;;;;;;;10.45;72.85;99945.28;5064808;28;20053;-64
2023/12/11 00:35:47;;;;;;;25.60;4.78;;;;;;;10.44;73.01;99947.16;5062406;28;20056;-65
2023/12/11 00:38:14;;;;;;;30.92;5.95;;;;;;;10.44;72.96;99952.53;5064703;28;20045;-65
2023/12/11 00:40:42;;;;;;;25.27;4.18;;;;;;;10.43;72.96;99942.84;5060151;28;20064;-64
2023/12/11 00:43:10;;;;;;;29.45;5.32;;;;;;;10.44;72.75;99938.28;5062556;28;20072;-65
2023/12/11 00:45:38;;;;;;;29.15;5.78;;;;;;;10.43;72.82;99947.41;5061099;28;20136;-66
2023/12/11 00:48:07;;;;;;;22.48;5.18;;;;;;;10.42;72.81;99953.84;5053038;28;20493;-65
2023/12/11 00:50:35;;;;;;;30.52;5.15;;;;;;;10.41;73.08;99946.84;5061397;28;20087;-65
2023/12/11 00:53:03;;;;;;;21.52;4.25;;;;;;;10.40;72.87;99935.28;5048305;28;20482;-64
2023/12/11 00:55:31;;;;;;;35.33;6.55;;;;;;;10.41;72.92;99944.16;5078891;28;20056;-65
2023/12/11 00:57:59;;;;;;;24.98;4.10;;;;;;;10.40;72.90;99927.22;5069585;28;20087;-65
2023/12/11 01:00:27;;;;;;;27.50;6.15;;;;;;;10.39;72.88;99931.00;5060752;28;20090;-65
2023/12/11 01:02:55;;;;;;;31.50;5.75;;;;;;;10.39;72.95;99931.00;5066887;28;20049;-65
2023/12/11 01:05:24;;;;;;;21.40;5.10;;;;;;;10.38;72.77;99923.19;5076813;28;20251;-65
2023/12/11 01:07:52;;;;;;;30.83;4.50;;;;;;;10.37;72.94;99925.06;5071146;28;20052;-65
2023/12/11 01:10:20;;;;;;;23.02;5.05;;;;;;;10.36;72.99;99926.09;5075597;28;20041;-65
2023/12/11 01:12:48;;;;;;;25.83;6.60;;;;;;;10.37;72.99;99916.19;5081940;28;20045;-65
2023/12/11 01:15:16;;;;;;;38.28;7.57;;;;;;;10.36;73.10;99909.19;5065231;28;20053;-65
2023/12/11 01:17:43;;;;;;;20.10;4.50;;;;;;;10.36;73.02;99922.59;5071227;28;20055;-66
2023/12/11 01:20:12;;;;;;;25.63;4.80;;;;;;;10.35;73.02;99919.09;5057568;28;20056;-66
2023/12/11 01:22:41;;;;;;;28.20;5.55;;;;;;;10.33;72.60;99913.16;5067197;28;20414;-65
2023/12/11 01:25:09;;;;;;;23.50;6.07;;;;;;;10.31;72.92;99904.53;5064350;28;20107;-64
2023/12/11 01:27:37;;;;;;;23.42;5.90;;;;;;;10.35;72.96;99911.03;5059212;28;20069;-65
2023/12/11 01:30:07;;;;;;;27.45;6.22;;;;;;;10.33;72.99;99898.91;5055485;28;20045;-65
2023/12/11 01:32:35;;;;;;;25.25;4.78;;;;;;;10.37;72.99;99916.19;5061766;28;20037;-65
2023/12/11 01:35:03;;;;;;;27.13;4.88;;;;;;;10.37;72.89;99894.69;5066470;28;20061;-66
2023/12/11 01:37:30;;;;;;;30.70;5.72;;;;;;;10.36;72.90;99891.19;5058799;28;20053;-65
2023/12/11 01:40:00;;;;;;;26.60;4.93;;;;;;;10.36;73.24;99899.25;5068737;28;20063;-66
2023/12/11 01:42:28;;;;;;;25.23;5.22;;;;;;;10.36;72.88;99893.06;5068400;28;20041;-65
2023/12/11 01:44:56;;;;;;;32.17;6.18;;;;;;;10.36;72.92;99899.25;5063964;28;20080;-65
2023/12/11 01:47:24;;;;;;;27.55;5.35;;;;;;;10.35;72.84;99884.19;5061882;28;20556;-65
2023/12/11 01:49:52;;;;;;;24.80;5.78;;;;;;;10.36;72.96;99877.75;5061977;28;20192;-65
2023/12/11 01:52:20;;;;;;;20.58;4.78;;;;;;;10.36;73.00;99885.81;5073100;28;20041;-65
2023/12/11 01:54:48;;;;;;;23.02;4.18;;;;;;;10.36;73.00;99885.81;5065728;28;20093;-65
2023/12/11 01:57:18;;;;;;;26.92;4.82;;;;;;;10.37;72.73;99881.25;5064648;28;20591;-64
2023/12/11 01:59:46;;;;;;;19.35;4.68;;;;;;;10.36;72.78;99872.38;5063887;28;20072;-65
2023/12/11 02:02:19;;;;;;;28.27;6.20;;;;;;;10.37;72.85;99870.53;5066940;28;20049;-65
2023/12/11 02:04:49;;;;;;;30.85;7.88;;;;;;;10.35;72.92;99862.69;5069766;28;20422;-65
2023/12/11 02:07:17;;;;;;;24.13;5.00;;;;;;;10.36;72.76;99858.97;5066748;28;20049;-65
2023/12/11 02:09:45;;;;;;;25.10;5.82;;;;;;;10.38;72.80;99853.34;5062548;28;20091;-65
2023/12/11 02:12:13;;;;;;;25.85;4.78;;;;;;;10.37;72.86;99849.03;5063663;28;20064;-65
2023/12/11 02:14:42;;;;;;;28.55;4.57;;;;;;;10.36;72.90;99842.03;5067987;28;20049;-65
2023/12/11 02:17:10;;;;;;;25.08;6.18;;;;;;;10.36;72.66;99847.41;5065622;28;20359;-65
2023/12/11 02:19:38;;;;;;;20.85;5.10;;;;;;;10.32;73.20;99846.25;5067749;28;20049;-65
2023/12/11 02:22:06;;;;;;;31.33;5.43;;;;;;;10.33;72.91;99858.63;5068333;28;20358;-65
2023/12/11 02:24:39;;;;;;;22.15;4.18;;;;;;;10.29;73.04;99842.19;5058556;28;20057;-66
2023/12/11 02:27:09;;;;;;;19.85;4.93;;;;;;;10.31;72.95;99853.50;5053413;28;20051;-66
2023/12/11 02:29:37;;;;;;;24.25;5.40;;;;;;;10.29;72.89;99842.19;5055375;28;20056;-65
2023/12/11 02:32:05;;;;;;;17.45;3.92;;;;;;;10.30;72.99;99843.00;5064434;28;20049;-65
2023/12/11 02:34:33;;;;;;;30.83;5.55;;;;;;;10.29;72.85;99844.06;5081988;28;20056;-64
2023/12/11 02:37:01;;;;;;;23.83;4.38;;;;;;;10.28;73.00;99837.06;5067919;28;20064;-65
2023/12/11 02:39:29;;;;;;;15.05;4.35;;;;;;;10.28;72.92;99837.06;5057647;28;20072;-64
2023/12/11 02:41:57;;;;;;;21.65;4.32;;;;;;;10.28;73.05;99839.75;5063375;28;20071;-64
2023/12/11 02:44:26;;;;;;;25.17;5.28;;;;;;;10.27;72.90;99835.44;5058353;28;20076;-64
2023/12/11 02:46:54;;;;;;;32.25;4.68;;;;;;;10.26;72.97;99826.56;5059201;28;20406;-65
2023/12/11 02:49:22;;;;;;;25.90;3.90;;;;;;;10.28;72.88;99829.00;5061680;28;20135;-67
2023/12/11 02:51:50;;;;;;;28.40;4.93;;;;;;;10.28;72.92;99823.66;5062932;28;20355;-64
2023/12/11 02:54:18;;;;;;;17.83;4.03;;;;;;;10.27;72.60;99822.00;5064210;28;20053;-64
2023/12/11 02:56:46;;;;;;;25.15;4.85;;;;;;;10.26;72.96;99807.78;5066864;28;20079;-65
2023/12/11 02:59:13;;;;;;;23.13;4.63;;;;;;;10.18;72.88;99801.97;5069129;28;20071;-65
2023/12/11 03:01:43;;;;;;;25.98;5.20;;;;;;;10.24;73.04;99801.84;5063410;28;20068;-65
2023/12/11 03:04:11;;;;;;;24.55;3.95;;;;;;;10.16;72.96;99787.97;5063906;28;20060;-65
2023/12/11 03:06:39;;;;;;;17.55;5.18;;;;;;;10.23;72.95;99792.16;5063184;28;20063;-65
2023/12/11 03:09:07;;;;;;;20.55;4.50;;;;;;;10.23;72.77;99800.22;5061423;28;20060;-65
2023/12/11 03:11:35;;;;;;;19.98;4.68;;;;;;;10.24;72.95;99793.78;5059789;28;20041;-65
2023/12/11 03:14:03;;;;;;;24.08;4.68;;;;;;;10.24;73.42;99784.91;5063471;28;20052;-66
2023/12/11 03:16:31;;;;;;;20.25;4.50;;;;;;;10.23;73.16;99783.28;5058920;28;20057;-66
2023/12/11 03:19:00;;;;;;;20.17;4.15;;;;;;;10.23;73.08;99764.50;5059694;28;20111;-65
2023/12/11 03:21:28;;;;;;;21.02;4.95;;;;;;;10.22;73.20;99752.94;5065010;28;20044;-65
2023/12/11 03:23:56;;;;;;;21.10;4.88;;;;;;;10.14;73.11;99736.41;5063163;28;20053;-65
2023/12/11 03:26:24;;;;;;;23.20;4.22;;;;;;;10.20;73.19;99765.78;5061792;28;20049;-65
2023/12/11 03:28:52;;;;;;;21.50;4.72;;;;;;;10.29;72.87;99774.25;5058448;28;20073;-65
2023/12/11 03:31:19;;;;;;;20.00;3.85;;;;;;;10.24;72.94;99771.50;5062817;28;20045;-65
2023/12/11 03:33:47;;;;;;;22.25;4.55;;;;;;;10.23;73.08;99784.09;5063447;28;20040;-65
2023/12/11 03:36:17;;;;;;;24.83;4.38;;;;;;;10.23;73.03;99770.66;5074251;28;20058;-64
2023/12/11 03:38:44;;;;;;;18.38;3.30;;;;;;;10.22;72.93;99776.28;5047982;28;20064;-65
2023/12/11 03:41:12;;;;;;;18.92;3.75;;;;;;;10.22;73.11;99765.53;5056548;28;20350;-65
2023/12/11 03:43:40;;;;;;;21.08;3.95;;;;;;;10.22;72.95;99768.22;5069621;28;20040;-64
2023/12/11 03:46:08;;;;;;;23.85;5.72;;;;;;;10.21;73.09;99777.34;5054596;28;20048;-64
2023/12/11 03:48:36;;;;;;;17.35;3.67;;;;;;;10.21;73.19;99774.66;5063458;28;20048;-64
2023/12/11 03:51:05;;;;;;;23.55;3.67;;;;;;;10.21;73.07;99777.34;5063700;28;20053;-66
2023/12/11 03:53:34;;;;;;;19.50;4.03;;;;;;;10.21;73.12;99786.22;5059909;28;20045;-64
2023/12/11 03:56:02;;;;;;;15.80;3.03;;;;;;;10.22;73.14;99766.34;5060684;28;20049;-64
2023/12/11 03:58:29;;;;;;;19.67;3.60;;;;;;;10.23;72.99;99769.84;5065128;28;20041;-65
2023/12/11 04:00:57;;;;;;;16.20;3.17;;;;;;;10.22;73.16;99768.22;5062553;28;20050;-65
2023/12/11 04:03:25;;;;;;;13.80;3.40;;;;;;;10.21;73.05;99764.72;5059740;28;20053;-65
2023/12/11 04:05:53;;;;;;;15.63;3.50;;;;;;;10.23;73.19;99783.28;5062324;28;20052;-65
2023/12/11 04:08:21;;;;;;;10.77;2.53;;;;;;;10.23;73.28;99777.91;5064203;28;20044;-64
2023/12/11 04:10:50;;;;;;;20.27;3.35;;;;;;;10.22;73.03;99758.31;5080838;28;20052;-64
2023/12/11 04:13:18;;;;;;;21.13;3.63;;;;;;;10.22;73.24;99762.88;5067136;28;20045;-65
2023/12/11 04:15:46;;;;;;;11.68;2.95;;;;;;;10.22;73.42;99763.69;5075136;28;20045;-65
2023/12/11 04:18:14;;;;;;;20.40;4.25;;;;;;;10.22;73.34;99763.69;5083886;28;20044;-65
2023/12/11 04:20:42;;;;;;;18.55;3.58;;;;;;;10.22;73.42;99766.34;5067159;28;20075;-65
2023/12/11 04:23:10;;;;;;;12.73;2.80;;;;;;;10.23;73.26;99764.50;5063431;28;20053;-64
2023/12/11 04:25:38;;;;;;;18.98;3.55;;;;;;;10.18;73.48;99762.50;5065357;28;20083;-64
2023/12/11 04:28:07;;;;;;;14.50;3.60;;;;;;;10.21;73.70;99754.00;5062954;28;20045;-64
2023/12/11 04:30:35;;;;;;;23.40;4.18;;;;;;;10.22;73.66;99755.63;5073007;28;20127;-64
2023/12/11 04:33:03;;;;;;;22.52;3.70;;;;;;;10.21;73.61;99754.00;5074547;28;20073;-65
2023/12/11 04:35:31;;;;;;;15.52;4.05;;;;;;;10.23;73.84;99756.44;5066612;28;20045;-64
2023/12/11 04:37:58;;;;;;;21.80;5.05;;;;;;;10.21;73.67;99755.88;5059569;28;20103;-64
2023/12/11 04:40:27;;;;;;;17.77;4.05;;;;;;;10.20;73.80;99748.88;5074963;28;20109;-65
2023/12/11 04:42:55;;;;;;;17.77;3.75;;;;;;;10.19;73.71;99747.22;5066200;28;20053;-65
2023/12/11 04:45:24;;;;;;;22.50;4.25;;;;;;;10.20;74.08;99736.25;5070952;28;20102;-65
2023/12/11 04:47:52;;;;;;;21.45;3.90;;;;;;;10.20;73.98;99738.94;5066980;28;20052;-65
2023/12/11 04:50:19;;;;;;;18.98;3.85;;;;;;;10.21;73.88;99737.06;5082492;28;20070;-65
2023/12/11 04:52:47;;;;;;;23.42;5.05;;;;;;;10.20;73.96;99735.44;5079161;28;20332;-65
2023/12/11 04:55:15;;;;;;;26.23;4.40;;;;;;;10.19;73.83;99733.78;5066961;28;20048;-65
2023/12/11 04:57:43;;;;;;;23.52;5.10;;;;;;;10.18;73.55;99738.34;5070489;28;20185;-65
2023/12/11 05:00:15;;;;;;;19.88;3.58;;;;;;;10.19;73.91;99736.47;5067875;28;20044;-65
2023/12/11 05:02:44;;;;;;;13.45;4.32;;;;;;;10.17;74.04;99725.97;5063699;28;20041;-64
2023/12/11 05:05:14;;;;;;;13.40;3.35;;;;;;;10.18;73.88;99721.41;5065432;28;20045;-65
2023/12/11 05:07:42;;;;;;;16.42;4.43;;;;;;;10.16;74.08;99724.34;5070195;28;20045;-65
2023/12/11 05:10:10;;;;;;;23.88;5.18;;;;;;;10.17;74.12;99734.03;5056125;28;20105;-65
2023/12/11 05:12:38;;;;;;;27.15;3.78;;;;;;;10.13;74.04;99730.22;5067972;28;20045;-65
2023/12/11 05:15:07;;;;;;;17.23;3.40;;;;;;;10.16;74.24;99735.09;5064162;28;20049;-65
2023/12/11 05:17:35;;;;;;;20.27;4.63;;;;;;;10.16;74.20;99740.47;5079825;28;20052;-65
2023/12/11 05:20:05;;;;;;;15.63;3.03;;;;;;;10.17;74.11;99738.59;5071638;28;20045;-64
2023/12/11 05:22:33;;;;;;;19.55;4.20;;;;;;;10.17;73.92;99741.28;5062853;28;20037;-64
2023/12/11 05:25:01;;;;;;;27.90;4.80;;;;;;;10.15;73.99;99749.56;5064593;28;20112;-65
2023/12/11 05:27:29;;;;;;;16.60;3.90;;;;;;;10.16;74.20;99753.88;5074115;28;20046;-64
2023/12/11 05:29:57;;;;;;;23.23;3.95;;;;;;;10.18;74.03;99748.28;5057143;28;20049;-65
2023/12/11 05:32:25;;;;;;;24.45;5.18;;;;;;;10.16;74.35;99745.84;5064830;28;20075;-65
2023/12/11 05:34:54;;;;;;;24.35;3.53;;;;;;;10.14;74.34;99734.53;5052002;28;20132;-64
2023/12/11 05:37:23;;;;;;;21.45;4.55;;;;;;;10.16;74.38;99745.84;5068158;28;20040;-64
2023/12/11 05:39:51;;;;;;;25.58;4.97;;;;;;;10.13;74.18;99740.13;5059246;28;20050;-64
2023/12/11 05:42:39;;;;;;;19.58;3.65;;;;;;;10.16;74.34;99745.03;5058309;28;20136;-64
2023/12/11 05:45:08;;;;;;;21.55;3.65;;;;;;;10.15;74.20;99732.66;5062496;28;20049;-64
2023/12/11 05:47:36;;;;;;;20.85;4.90;;;;;;;10.15;74.33;99738.84;5054860;28;20103;-64
2023/12/11 05:50:05;;;;;;;21.58;4.82;;;;;;;10.16;74.27;99734.28;5066909;28;20486;-64
2023/12/11 05:52:34;;;;;;;20.00;4.65;;;;;;;10.15;74.25;99730.78;5073036;28;20037;-64
2023/12/11 05:55:02;;;;;;;18.48;4.75;;;;;;;10.16;74.43;99742.34;5065304;28;20103;-63
2023/12/11 05:57:30;;;;;;;19.40;3.92;;;;;;;10.16;74.19;99729.72;5064454;28;20040;-63
2023/12/11 05:59:58;;;;;;;20.13;3.67;;;;;;;10.15;74.17;99725.41;5064523;28;20044;-64
2023/12/11 06:02:26;;;;;;;21.73;3.97;;;;;;;10.16;74.38;99726.22;5064448;28;20053;-64
2023/12/11 06:04:54;;;;;;;16.73;3.97;;;;;;;10.14;74.09;99726.47;5062160;28;20064;-65
2023/12/11 06:07:22;;;;;;;20.38;4.68;;;;;;;10.15;74.14;99724.59;5066031;28;20049;-64
2023/12/11 06:09:51;;;;;;;19.90;4.05;;;;;;;10.14;74.11;99731.84;5069082;28;20075;-64
2023/12/11 06:12:19;;;;;;;16.70;4.63;;;;;;;10.16;74.10;99727.03;5054367;28;20472;-64
2023/12/11 06:14:47;;;;;;;19.70;3.45;;;;;;;10.15;74.05;99733.47;5063084;28;20494;-64
2023/12/11 06:17:17;;;;;;;20.00;4.50;;;;;;;10.17;74.38;99725.16;5065437;28;20075;-64
2023/12/11 06:19:45;;;;;;;16.65;3.75;;;;;;;10.16;74.14;99728.91;5083955;28;20083;-64
2023/12/11 06:22:13;;;;;;;15.82;5.32;;;;;;;10.17;74.24;99730.53;5071992;28;20048;-62
2023/12/11 06:24:41;;;;;;;19.15;3.50;;;;;;;10.16;74.18;99727.03;5059059;28;20071;-62
2023/12/11 06:27:11;;;;;;;24.15;4.88;;;;;;;10.18;74.35;99734.84;5054211;28;20049;-63
2023/12/11 06:29:39;;;;;;;21.30;3.60;;;;;;;10.25;74.08;99740.88;5059833;28;20148;-66
2023/12/11 06:32:08;;;;;;;37.60;5.28;;;;;;;10.20;74.04;99741.63;5063134;28;20086;-64
2023/12/11 06:34:35;;;;;;;21.00;4.70;;;;;;;10.19;74.42;99748.03;5065494;28;20049;-65
2023/12/11 06:37:04;;;;;;;20.52;3.50;;;;;;;10.17;74.65;99747.47;5061504;28;20084;-64
2023/12/11 06:39:32;;;;;;;27.00;4.30;;;;;;;10.18;74.46;99748.28;5059977;28;20071;-65
2023/12/11 06:42:00;;;;;;;29.77;3.90;;;;;;;10.18;74.48;99741.03;5067814;28;20044;-67
2023/12/11 06:44:30;;;;;;;16.75;4.10;;;;;;;10.25;73.91;99741.69;5052689;28;20451;-63
2023/12/11 06:46:58;;;;;;;19.80;3.88;;;;;;;10.22;74.21;99746.75;5062739;28;20074;-64
2023/12/11 06:49:25;;;;;;;19.08;4.80;;;;;;;10.20;74.16;99751.56;4711533;28;10000398;-63
2023/12/11 06:51:55;;;;;;;16.67;3.15;;;;;;;10.18;74.08;99759.81;5060665;28;20052;-65
2023/12/11 06:54:23;;;;;;;21.92;4.78;;;;;;;10.19;74.22;99758.75;5056072;28;20486;-63
2023/12/11 06:56:51;;;;;;;20.25;3.38;;;;;;;10.21;74.23;99764.72;5061788;28;20053;-63
2023/12/11 06:59:19;;;;;;;26.55;5.40;;;;;;;10.18;74.30;99762.50;5058021;28;20175;-64
2023/12/11 07:01:48;;;;;;;23.13;3.90;;;;;;;10.16;74.71;99772.69;5059881;28;20057;-62
2023/12/11 07:04:16;;;;;;;24.48;5.63;;;;;;;10.17;74.41;99776.19;5060721;28;20049;-62
2023/12/11 07:06:44;;;;;;;20.13;4.00;;;;;;;10.17;74.37;99774.31;5064058;28;20489;-61
2023/12/11 07:09:12;;;;;;;23.38;5.00;;;;;;;10.17;74.33;99785.03;5076443;28;20049;-62
2023/12/11 07:11:41;;;;;;;27.65;5.05;;;;;;;10.16;74.42;99783.41;5065628;28;20105;-64
2023/12/11 07:14:09;;;;;;;23.63;5.13;;;;;;;10.17;74.39;99797.66;5083669;28;20102;-64
2023/12/11 07:16:37;;;;;;;19.38;4.53;;;;;;;10.14;74.57;99793.59;5063877;28;20049;-63
2023/12/11 07:19:06;;;;;;;17.83;4.18;;;;;;;10.14;74.54;99795.47;5064717;28;20045;-62
2023/12/11 07:21:35;;;;;;;28.15;4.47;;;;;;;10.13;74.30;99785.78;5064830;28;20049;-63
2023/12/11 07:24:04;;;;;;;21.10;4.22;;;;;;;10.13;74.48;99791.97;5063738;28;20079;-63
2023/12/11 07:26:32;;;;;;;20.95;3.63;;;;;;;10.13;74.38;99802.69;5064698;28;20049;-63
2023/12/11 07:29:00;;;;;;;26.02;4.40;;;;;;;10.14;74.21;99804.31;5063738;28;20041;-63
2023/12/11 07:31:28;;;;;;;15.95;4.55;;;;;;;10.18;74.31;99801.97;5063151;28;20060;-63
2023/12/11 07:33:56;;;;;;;20.45;3.50;;;;;;;10.11;74.73;99797.56;5064850;28;20049;-61
2023/12/11 07:36:25;;;;;;;20.92;3.83;;;;;;;10.11;74.95;99802.13;5073930;28;20048;-61
2023/12/11 07:38:53;;;;;;;25.50;4.47;;;;;;;10.11;75.16;99800.25;5068172;28;20049;-60
2023/12/11 07:41:23;;;;;;;26.05;4.90;;;;;;;10.09;74.74;99802.38;5063900;28;20098;-61
2023/12/11 07:43:51;;;;;;;22.45;4.07;;;;;;;10.09;75.13;99805.06;5074568;28;20074;-60
2023/12/11 07:46:19;;;;;;;22.83;3.78;;;;;;;10.15;74.65;99813.19;5062164;28;20103;-60
2023/12/11 07:48:47;;;;;;;21.30;4.47;;;;;;;10.12;75.19;99827.94;5064175;28;20053;-61
2023/12/11 07:51:19;;;;;;;19.77;3.53;;;;;;;10.11;74.92;99823.59;5063211;28;20109;-60
2023/12/11 07:53:48;;;;;;;20.63;4.68;;;;;;;10.11;74.98;99829.78;5068778;28;20386;-60
2023/12/11 07:56:20;;;;;;;22.73;3.95;;;;;;;10.08;75.05;99835.66;5072287;28;20109;-61
2023/12/11 07:58:48;;;;;;;30.48;5.30;;;;;;;10.09;74.90;99847.19;5062088;28;20109;-60
2023/12/11 08:01:16;;;;;;;22.05;4.22;;;;;;;10.10;74.97;99844.28;5064658;28;20044;-60
2023/12/11 08:03:44;;;;;;;20.38;5.28;;;;;;;10.10;75.17;99841.59;5059796;28;20055;-61
2023/12/11 08:06:12;;;;;;;17.38;3.65;;;;;;;10.10;74.98;99841.59;5062788;28;20052;-63
2023/12/11 08:08:43;;;;;;;18.92;3.63;;;;;;;10.10;74.79;99849.66;5064115;28;20048;-60
2023/12/11 08:11:20;;;;;;;15.98;3.05;;;;;;;10.11;74.66;99853.13;5060570;28;20052;-61
2023/12/11 08:13:49;;;;;;;17.80;3.80;;;;;;;10.10;74.67;99862.25;5063468;28;20355;-62
2023/12/11 08:16:17;;;;;;;19.95;3.70;;;;;;;9.98;74.71;99848.09;5062344;28;20315;-62
2023/12/11 08:18:46;;;;;;;17.90;3.20;;;;;;;10.17;74.08;99864.78;5064973;28;20570;-62
2023/12/11 08:21:16;;;;;;;18.67;2.92;;;;;;;10.32;73.54;99873.94;5060175;28;20060;-62
2023/12/11 08:23:45;;;;;;;15.90;4.53;;;;;;;10.51;72.97;99887.09;5063596;28;20057;-62
2023/12/11 08:26:18;;;;;;;15.10;2.47;;;;;;;10.69;72.02;99886.84;5065859;28;20044;-62
2023/12/11 08:28:47;;;;;;;18.63;3.60;;;;;;;10.81;71.26;99884.06;5063237;28;20080;-62
2023/12/11 08:31:15;;;;;;;12.57;2.90;;;;;;;10.93;70.88;99901.72;5064182;28;20061;-62
2023/12/11 08:33:44;;;;;;;17.73;3.13;;;;;;;11.14;70.10;99893.91;5063735;28;20045;-62
2023/12/11 08:36:12;;;;;;;14.90;3.15;;;;;;;11.23;69.33;99898.63;5063273;28;20395;-62
2023/12/11 08:38:40;;;;;;;15.90;2.72;;;;;;;11.50;68.40;99912.13;5064237;28;20053;-63
2023/12/11 08:41:08;;;;;;;11.48;2.88;;;;;;;11.62;68.21;99910.13;5067585;28;20057;-62
2023/12/11 08:43:37;;;;;;;15.57;3.13;;;;;;;11.76;67.11;99912.44;5061307;28;20083;-63
2023/12/11 08:46:05;;;;;;;15.70;3.33;;;;;;;11.80;67.19;99924.34;5062744;28;20056;-62
2023/12/11 08:48:33;;;;;;;19.65;3.05;;;;;;;11.81;66.76;99907.94;5054360;28;20088;-63
2023/12/11 08:51:02;;;;;;;16.75;4.03;;;;;;;11.79;67.29;99931.63;5056260;28;20108;-63
2023/12/11 08:53:30;;;;;;;17.52;2.90;;;;;;;11.59;67.79;99926.78;5061839;28;20095;-63
2023/12/11 08:55:58;;;;;;;16.20;2.83;;;;;;;11.44;68.67;99939.22;5063497;28;20053;-62
2023/12/11 08:58:26;;;;;;;16.85;3.35;;;;;;;11.31;69.14;99943.09;5063143;28;20056;-63
2023/12/11 09:00:55;;;;;;;16.48;3.53;;;;;;;11.18;69.68;99949.66;5067468;28;20048;-63
2023/12/11 09:03:23;;;;;;;15.50;3.25;;;;;;;11.03;70.11;99944.06;5069342;28;20052;-63
2023/12/11 09:05:52;;;;;;;21.77;3.47;;;;;;;10.94;70.31;99948.22;5062737;28;20070;-63
2023/12/11 09:08:24;;;;;;;12.98;3.00;;;;;;;10.86;70.59;99964.75;5079293;28;20049;-63
2023/12/11 09:10:51;;;;;;;19.45;3.67;;;;;;;10.82;70.98;99960.94;5083558;28;20059;-64
2023/12/11 09:13:19;;;;;;;15.00;2.78;;;;;;;10.77;71.13;99983.16;5065948;28;20056;-62
2023/12/11 09:15:48;;;;;;;16.33;2.72;;;;;;;10.77;71.24;99985.84;5064937;28;20052;-62
2023/12/11 09:18:17;;;;;;;15.18;3.20;;;;;;;10.73;71.56;99990.09;5066824;28;20128;-63
2023/12/11 09:20:45;;;;;;;16.05;2.75;;;;;;;10.70;71.29;100004.81;5069420;28;20052;-63
2023/12/11 09:23:14;;;;;;;19.05;3.60;;;;;;;10.68;71.85;100014.19;5065576;28;20056;-62
2023/12/11 09:25:42;;;;;;;19.27;2.80;;;;;;;10.59;71.66;100008.41;5073119;28;20072;-63
2023/12/11 09:28:10;;;;;;;13.50;2.92;;;;;;;10.57;71.89;100007.00;5086472;28;20494;-63
2023/12/11 09:30:38;;;;;;;11.98;2.85;;;;;;;10.49;71.71;100024.34;5076627;28;20045;-63
2023/12/11 09:33:06;;;;;;;14.20;3.00;;;;;;;10.44;71.81;100032.31;5070955;28;20087;-63
2023/12/11 09:35:38;;;;;;;19.85;4.63;;;;;;;10.42;71.85;100037.09;5066296;28;20045;-63
2023/12/11 09:38:06;;;;;;;18.27;2.88;;;;;;;10.40;72.02;100044.63;5066555;28;20124;-63
2023/12/11 09:40:35;;;;;;;17.35;3.15;;;;;;;10.32;71.97;100053.06;5065154;28;20045;-64
2023/12/11 09:43:04;;;;;;;19.55;2.67;;;;;;;10.37;72.15;100059.34;5067306;28;20102;-63
2023/12/11 09:45:32;;;;;;;17.08;3.78;;;;;;;10.35;72.06;100066.00;5072263;28;20502;-63
2023/12/11 09:48:00;;;;;;;13.45;2.55;;;;;;;10.46;72.03;100059.75;5060717;28;20051;-63
2023/12/11 09:50:42;;;;;;;11.23;2.40;;;;;;;10.67;71.39;100050.19;5066509;28;20059;-64
2023/12/11 09:53:10;;;;;;;9.80;2.22;;;;;;;10.84;70.89;100075.22;5068197;28;20135;-64
2023/12/11 09:55:38;;;;;;;10.10;3.50;;;;;;;11.01;69.90;100067.97;5073668;28;20044;-64
2023/12/11 09:58:07;;;;;;;17.48;2.80;;;;;;;11.19;69.73;100071.50;5064864;28;20107;-64
2023/12/11 10:00:36;;;;;;;10.27;2.78;;;;;;;11.34;69.34;100082.50;5050877;28;20049;-62
2023/12/11 10:03:07;;;;;;;12.02;3.03;;;;;;;11.49;68.69;100081.91;5067556;28;20059;-63
2023/12/11 10:05:37;;;;;;;9.57;2.40;;;;;;;11.66;67.98;100088.91;5085969;28;20072;-62
2023/12/11 10:08:06;;;;;;;11.60;3.13;;;;;;;11.76;67.47;100087.41;5070068;28;20041;-62
2023/12/11 10:10:38;;;;;;;10.07;2.50;;;;;;;11.86;67.09;100083.00;5067087;28;20113;-63
2023/12/11 10:13:06;;;;;;;10.10;2.22;;;;;;;11.92;66.79;100087.41;5064588;28;20049;-63
2023/12/11 10:15:36;;;;;;;10.88;2.78;;;;;;;11.88;66.98;100093.53;5077577;28;20045;-63
2023/12/11 10:18:06;;;;;;;12.82;1.95;;;;;;;11.71;67.17;100102.44;5065492;28;20048;-63
2023/12/11 10:20:35;;;;;;;10.55;1.95;;;;;;;11.62;67.67;100103.91;5070687;28;20057;-60
2023/12/11 10:23:16;;;;;;;15.40;2.75;;;;;;;11.68;67.95;100116.38;5072631;28;20120;-63
2023/12/11 10:25:46;;;;;;;13.63;2.55;;;;;;;11.79;67.20;100120.06;5047684;28;20050;-66
2023/12/11 10:28:17;;;;;;;12.75;3.20;;;;;;;11.86;66.99;100118.00;5063246;28;20049;-65
2023/12/11 10:30:53;;;;;;;12.02;2.45;;;;;;;11.96;66.72;100136.19;4717297;28;10001702;-64
2023/12/11 10:33:25;;;;;;;12.52;2.80;;;;;;;12.01;66.68;100131.69;5067404;28;20054;-65
2023/12/11 10:36:08;;;;;;;10.27;2.05;;;;;;;12.09;66.45;100137.72;5063328;28;20059;-64
2023/12/11 10:38:37;;;;;;;11.75;2.60;;;;;;;12.17;65.71;100137.25;5069073;28;20044;-64
2023/12/11 10:41:06;;;;;;;9.90;3.28;;;;;;;12.17;65.72;100142.63;5067415;28;20060;-64
2023/12/11 10:43:40;;;;;;;13.45;2.63;;;;;;;12.17;65.74;100143.44;5062446;28;20087;-64
2023/12/11 10:46:28;;;;;;;11.20;2.72;;;;;;;12.20;65.84;100147.53;5059872;28;20044;-65
2023/12/11 10:48:57;;;;;;;11.63;2.65;;;;;;;12.07;66.21;100146.03;5061560;28;20114;-64
2023/12/11 10:51:26;;;;;;;11.75;3.10;;;;;;;11.86;66.58;100157.59;5061600;28;20521;-64
2023/12/11 10:53:55;;;;;;;12.57;2.67;;;;;;;11.70;67.57;100157.31;5061407;28;20049;-64
2023/12/11 10:56:26;;;;;;;11.73;2.97;;;;;;;11.58;67.86;100164.66;5060014;28;20056;-64
2023/12/11 10:58:57;;;;;;;14.45;3.33;;;;;;;11.43;68.17;100160.91;5061887;28;20121;-64
2023/12/11 11:01:25;;;;;;;12.13;2.63;;;;;;;11.34;68.52;100160.50;5060835;28;20053;-65
2023/12/11 11:03:54;;;;;;;14.15;2.67;;;;;;;11.26;68.84;100174.34;5068941;28;20124;-65
2023/12/11 11:06:23;;;;;;;12.32;2.63;;;;;;;11.16;68.84;100182.25;5060742;28;20047;-66
2023/12/11 11:09:01;;;;;;;14.15;2.95;;;;;;;11.09;69.50;100174.31;5059471;28;20156;-65
2023/12/11 11:11:37;;;;;;;13.38;2.95;;;;;;;11.06;69.64;100186.38;5061926;28;20139;-65
2023/12/11 11:14:29;;;;;;;12.05;3.20;;;;;;;11.04;69.85;100188.50;5060722;28;20114;-65
2023/12/11 11:16:59;;;;;;;13.57;2.85;;;;;;;11.00;69.91;100186.53;5041300;28;20045;-65
2023/12/11 11:19:29;;;;;;;10.90;2.90;;;;;;;10.93;69.85;100189.38;5049772;28;20045;-65
2023/12/11 11:22:19;;;;;;;13.07;2.30;;;;;;;10.90;70.01;100199.78;5061770;28;20049;-66
2023/12/11 11:25:30;;;;;;;10.90;2.30;;;;;;;10.78;69.92;100191.75;5071787;28;20056;-65
2023/12/11 11:27:59;;;;;;;12.40;2.40;;;;;;;10.82;69.79;100203.66;5072755;28;20049;-65
2023/12/11 11:30:50;;;;;;;11.07;1.88;;;;;;;10.83;69.83;100215.22;5060330;28;20045;-65
2023/12/11 11:33:23;;;;;;;8.43;1.83;;;;;;;10.87;69.59;100217.19;5060938;28;20121;-65